createdAt,value
2022-09-28T00:01:23.906Z,70.04
2022-09-28T00:03:57.388Z,70.02
2022-09-28T00:06:27.680Z,69.36
2022-09-28T00:08:56.987Z,69.93
2022-09-28T00:11:28.085Z,69.83
2022-09-28T00:14:00.074Z,70.18
2022-09-28T00:16:31.128Z,69.84
2022-09-28T00:19:00.552Z,70.52
2022-09-28T00:21:30.849Z,70.36
2022-09-28T00:24:15.085Z,70.75
2022-09-28T00:26:47.261Z,70.40
2022-09-28T00:29:23.814Z,70.76
2022-09-28T00:31:57.158Z,70.74
2022-09-28T00:34:27.326Z,70.19
2022-09-28T00:36:55.482Z,70.28
2022-09-28T00:39:23.858Z,70.87
2022-09-28T00:41:52.412Z,70.35
2022-09-28T00:44:41.574Z,70.37
2022-09-28T00:47:28.036Z,69.78
2022-09-28T00:50:03.049Z,70.58
2022-09-28T00:52:36.931Z,70.97
2022-09-28T00:55:10.228Z,70.95
2022-09-28T00:57:40.628Z,70.59
2022-09-28T01:00:11.135Z,70.83
2022-09-28T01:02:39.188Z,70.94
2022-09-28T01:05:11.234Z,70.67
2022-09-28T01:07:39.996Z,70.75
2022-09-28T01:10:09.726Z,71.46
2022-09-28T01:12:37.817Z,71.61
2022-09-28T01:15:07.110Z,71.51
2022-09-28T01:17:53.626Z,71.69
2022-09-28T01:20:45.252Z,71.39
2022-09-28T01:24:10.217Z,70.68
2022-09-28T01:27:01.327Z,70.77
2022-09-28T01:29:44.565Z,71.46
2022-09-28T01:32:34.252Z,71.40
2022-09-28T01:35:08.966Z,71.69
2022-09-28T01:37:46.050Z,71.74
2022-09-28T01:40:16.389Z,71.48
2022-09-28T01:42:50.716Z,72.20
2022-09-28T01:45:24.892Z,72.25
2022-09-28T01:47:57.712Z,72.05
2022-09-28T01:50:29.358Z,72.03
2022-09-28T01:53:03.990Z,71.54
2022-09-28T01:55:35.867Z,71.92
2022-09-28T01:58:13.677Z,72.34
2022-09-28T02:00:48.168Z,72.40
2022-09-28T02:03:22.433Z,72.19
2022-09-28T02:06:00.576Z,71.94
2022-09-28T02:08:32.671Z,72.15
2022-09-28T02:11:08.188Z,72.08
2022-09-28T02:13:41.842Z,71.47
2022-09-28T02:16:18.355Z,71.87
2022-09-28T02:18:48.391Z,72.08
2022-09-28T02:21:23.968Z,71.52
2022-09-28T02:23:57.591Z,71.90
2022-09-28T02:26:33.331Z,72.20
2022-09-28T02:32:48.954Z,72.04
2022-09-28T02:35:20.052Z,72.84
2022-09-28T02:37:49.939Z,72.16
2022-09-28T02:40:21.981Z,72.25
2022-09-28T02:42:58.948Z,72.78
2022-09-28T02:45:45.716Z,72.72
2022-09-28T02:48:43.617Z,72.69
2022-09-28T02:51:25.159Z,72.46
2022-09-28T02:54:32.010Z,72.23
2022-09-28T02:57:14.281Z,72.10
2022-09-28T02:59:53.994Z,72.44
2022-09-28T03:02:31.660Z,72.27
2022-09-28T03:05:14.848Z,72.46
2022-09-28T03:07:49.618Z,72.82
2022-09-28T03:10:24.961Z,72.75
2022-09-28T03:12:55.140Z,72.46
2022-09-28T03:15:25.884Z,72.26
2022-09-28T03:17:57.624Z,72.65
2022-09-28T03:20:26.394Z,72.31
2022-09-28T03:23:22.830Z,72.56
2022-09-28T03:25:43.238Z,72.24
2022-09-28T03:28:11.229Z,73.24
2022-09-28T03:30:42.933Z,73.60
2022-09-28T03:33:12.446Z,73.63
2022-09-28T03:35:40.576Z,73.47
2022-09-28T03:38:08.874Z,73.21
2022-09-28T03:40:39.269Z,73.70
2022-09-28T03:43:07.628Z,74.44
2022-09-28T03:45:35.923Z,73.43
2022-09-28T03:48:04.352Z,73.23
2022-09-28T03:50:36.376Z,72.76
2022-09-28T03:53:05.109Z,73.17
2022-09-28T03:55:33.345Z,72.53
2022-09-28T03:58:01.438Z,72.39
2022-09-28T04:00:31.042Z,72.37
2022-09-28T04:02:59.256Z,73.12
2022-09-28T04:05:27.349Z,73.07
2022-09-28T04:07:57.805Z,73.07
2022-09-28T04:10:26.325Z,72.91
2022-09-28T04:12:56.694Z,73.02
2022-09-28T04:15:25.584Z,73.23
2022-09-28T04:17:54.007Z,72.37
2022-09-28T04:20:41.058Z,73.17
2022-09-28T04:23:14.909Z,73.03
2022-09-28T04:25:45.946Z,72.54
2022-09-28T04:28:31.850Z,72.62
2022-09-28T04:30:59.984Z,73.53
2022-09-28T04:33:28.037Z,72.83
2022-09-28T04:35:56.090Z,73.30
2022-09-28T04:38:48.407Z,73.06
2022-09-28T04:41:13.522Z,72.54
2022-09-28T04:43:41.988Z,72.74
2022-09-28T04:46:11.660Z,73.27
2022-09-28T04:48:45.623Z,73.32
2022-09-28T04:51:32.886Z,73.08
2022-09-28T04:54:02.778Z,73.02
2022-09-28T04:56:30.909Z,72.30
2022-09-28T04:58:59.204Z,72.49
2022-09-28T05:01:27.365Z,73.11
2022-09-28T05:04:20.345Z,73.09
2022-09-28T05:07:10.640Z,73.19
2022-09-28T05:09:40.803Z,72.46
2022-09-28T05:12:10.514Z,72.70
2022-09-28T05:14:39.008Z,73.16
2022-09-28T05:17:07.579Z,73.20
2022-09-28T05:19:47.943Z,73.22
2022-09-28T05:22:16.414Z,73.20
2022-09-28T05:24:48.666Z,72.96
2022-09-28T05:27:16.725Z,72.89
2022-09-28T05:29:47.949Z,72.79
2022-09-28T05:32:41.749Z,72.62
2022-09-28T05:35:20.664Z,73.51
2022-09-28T05:37:49.609Z,72.98
2022-09-28T05:40:19.377Z,72.58
2022-09-28T05:42:47.554Z,73.08
2022-09-28T05:45:15.960Z,73.34
2022-09-28T05:47:47.061Z,72.73
2022-09-28T05:50:19.266Z,73.03
2022-09-28T05:52:50.135Z,73.69
2022-09-28T05:55:19.578Z,73.83
2022-09-28T05:57:47.607Z,73.36
2022-09-28T06:00:15.920Z,73.15
2022-09-28T06:03:00.220Z,72.90
2022-09-28T06:05:29.949Z,72.92
2022-09-28T06:07:58.874Z,73.22
2022-09-28T06:10:29.739Z,73.12
2022-09-28T06:13:01.026Z,72.77
2022-09-28T06:15:31.550Z,73.67
2022-09-28T06:18:03.993Z,73.46
2022-09-28T06:20:55.349Z,73.74
2022-09-28T06:23:32.349Z,73.87
2022-09-28T06:26:01.772Z,73.24
2022-09-28T06:28:31.071Z,73.15
2022-09-28T06:31:01.696Z,73.80
2022-09-28T06:33:31.273Z,73.79
2022-09-28T06:36:00.943Z,72.83
2022-09-28T06:38:29.169Z,73.39
2022-09-28T06:40:58.899Z,73.80
2022-09-28T06:43:34.123Z,73.46
2022-09-28T06:46:15.085Z,73.95
2022-09-28T06:49:09.601Z,73.97
2022-09-28T06:51:55.971Z,74.33
2022-09-28T06:54:37.088Z,73.76
2022-09-28T06:57:22.269Z,73.66
2022-09-28T06:59:51.655Z,73.12
2022-09-28T07:02:20.214Z,73.34
2022-09-28T07:04:48.246Z,72.81
2022-09-28T07:07:40.401Z,73.37
2022-09-28T07:10:24.172Z,72.66
2022-09-28T07:13:39.534Z,73.25
2022-09-28T07:16:09.126Z,73.22
2022-09-28T07:18:37.260Z,73.09
2022-09-28T07:21:08.169Z,73.21
2022-09-28T07:23:50.080Z,73.08
2022-09-28T07:26:24.704Z,72.88
2022-09-28T07:29:15.501Z,72.79
2022-09-28T07:32:03.244Z,73.70
2022-09-28T07:34:58.714Z,73.51
2022-09-28T07:37:37.153Z,73.66
2022-09-28T07:40:24.921Z,73.86
2022-09-28T07:42:54.190Z,74.23
2022-09-28T07:45:24.145Z,73.44
2022-09-28T07:47:56.785Z,73.39
2022-09-28T07:50:38.304Z,74.00
2022-09-28T07:53:27.151Z,73.51
2022-09-28T07:56:07.349Z,73.43
2022-09-28T07:58:43.340Z,73.39
2022-09-28T08:01:30.497Z,73.50
2022-09-28T08:04:00.927Z,73.93
2022-09-28T08:06:31.004Z,73.33
2022-09-28T08:09:01.734Z,73.64
2022-09-28T08:11:50.050Z,73.23
2022-09-28T08:14:43.011Z,72.76
2022-09-28T08:17:24.677Z,72.53
2022-09-28T08:20:16.187Z,73.65
2022-09-28T08:22:44.625Z,73.85
2022-09-28T08:25:13.458Z,73.26
2022-09-28T08:27:41.469Z,73.39
2022-09-28T08:30:11.197Z,72.68
2022-09-28T08:33:08.626Z,73.12
2022-09-28T08:36:01.371Z,71.87
2022-09-28T08:38:49.237Z,72.15
2022-09-28T08:41:43.682Z,73.61
2022-09-28T08:44:33.725Z,73.45
2022-09-28T08:47:33.337Z,72.73
2022-09-28T08:50:27.076Z,72.62
2022-09-28T08:53:31.600Z,72.91
2022-09-28T08:56:19.081Z,73.53
2022-09-28T08:58:55.491Z,73.00
2022-09-28T09:01:27.017Z,72.70
2022-09-28T09:03:55.974Z,73.04
2022-09-28T09:06:56.955Z,72.43
2022-09-28T09:09:49.049Z,72.47
2022-09-28T09:12:26.034Z,72.48
2022-09-28T09:15:19.842Z,72.22
2022-09-28T09:18:03.808Z,72.66
2022-09-28T09:20:54.720Z,72.03
2022-09-28T09:23:39.186Z,71.79
2022-09-28T09:26:22.946Z,71.74
2022-09-28T09:29:26.903Z,71.40
2022-09-28T09:32:17.102Z,71.28
2022-09-28T09:35:23.709Z,70.99
2022-09-28T09:38:42.581Z,71.16
2022-09-28T09:42:02.816Z,71.52
2022-09-28T09:45:16.873Z,71.68
2022-09-28T09:48:08.438Z,71.63
2022-09-28T09:50:45.766Z,71.89
2022-09-28T09:53:24.846Z,71.23
2022-09-28T09:55:59.464Z,70.42
2022-09-28T09:58:38.133Z,69.92
2022-09-28T10:01:34.184Z,70.57
2022-09-28T10:04:30.602Z,70.74
2022-09-28T10:07:06.951Z,70.19
2022-09-28T10:09:43.249Z,69.91
2022-09-28T10:12:32.758Z,70.76
2022-09-28T10:15:07.593Z,69.76
2022-09-28T10:17:47.594Z,70.11
2022-09-28T10:20:41.864Z,70.30
2022-09-28T10:23:33.925Z,70.67
2022-09-28T10:26:06.905Z,70.46
2022-09-28T10:28:43.927Z,70.07
2022-09-28T10:31:43.828Z,69.01
2022-09-28T10:34:28.653Z,69.32
2022-09-28T10:37:03.749Z,69.08
2022-09-28T10:39:56.945Z,68.82
2022-09-28T10:42:31.170Z,69.83
2022-09-28T10:45:04.186Z,69.69
2022-09-28T10:47:38.785Z,69.57
2022-09-28T10:50:23.541Z,68.89
2022-09-28T10:53:13.454Z,69.24
2022-09-28T10:56:22.489Z,68.95
2022-09-28T10:58:57.974Z,67.97
2022-09-28T11:01:39.707Z,68.43
2022-09-28T11:04:21.774Z,69.04
2022-09-28T11:06:50.134Z,67.59
2022-09-28T11:09:31.272Z,67.38
2022-09-28T11:12:07.763Z,68.14
2022-09-28T11:14:42.496Z,68.19
2022-09-28T11:17:19.604Z,68.00
2022-09-28T11:19:50.112Z,67.17
2022-09-28T11:22:30.040Z,67.73
2022-09-28T11:25:23.774Z,68.29
2022-09-28T11:28:00.787Z,69.24
2022-09-28T11:30:34.373Z,68.92
2022-09-28T11:33:41.179Z,67.41
2022-09-28T11:37:16.198Z,65.41
2022-09-28T11:39:53.739Z,66.57
2022-09-28T11:42:37.594Z,65.54
2022-09-28T11:45:30.556Z,65.43
2022-09-28T11:48:02.736Z,66.00
2022-09-28T11:50:46.563Z,65.32
2022-09-28T11:53:23.910Z,64.24
2022-09-28T11:56:08.914Z,65.16
2022-09-28T11:58:43.206Z,65.16
2022-09-28T12:01:26.925Z,61.66
2022-09-28T12:04:18.857Z,63.75
2022-09-28T12:06:53.962Z,63.63
2022-09-28T12:09:33.878Z,64.08
2022-09-28T12:12:22.770Z,62.85
2022-09-28T12:14:56.774Z,63.13
2022-09-28T12:17:31.656Z,62.55
2022-09-28T12:20:11.046Z,61.62
2022-09-28T12:22:45.927Z,61.65
2022-09-28T12:25:21.485Z,61.87
2022-09-28T12:27:58.948Z,62.23
2022-09-28T12:30:31.698Z,61.42
2022-09-28T12:33:05.863Z,61.30
2022-09-28T12:35:54.327Z,60.67
2022-09-28T12:39:14.616Z,60.90
2022-09-28T12:41:58.276Z,61.29
2022-09-28T12:44:47.926Z,60.77
2022-09-28T12:47:47.305Z,60.41
2022-09-28T12:50:54.518Z,60.63
2022-09-28T12:53:46.900Z,61.42
2022-09-28T12:56:23.708Z,60.52
2022-09-28T12:59:10.928Z,59.87
2022-09-28T13:02:02.189Z,60.24
2022-09-28T13:04:57.118Z,59.80
2022-09-28T13:07:37.128Z,60.28
2022-09-28T13:10:17.704Z,59.28
2022-09-28T13:13:02.780Z,60.05
2022-09-28T13:15:43.961Z,60.13
2022-09-28T13:18:23.890Z,60.96
2022-09-28T13:21:17.109Z,60.96
2022-09-28T13:23:47.822Z,61.57
2022-09-28T13:26:25.207Z,58.59
2022-09-28T13:29:01.861Z,59.09
2022-09-28T13:31:35.952Z,58.85
2022-09-28T13:34:07.454Z,58.25
2022-09-28T13:36:47.154Z,59.29
2022-09-28T13:39:37.776Z,59.16
2022-09-28T13:42:09.142Z,58.89
2022-09-28T13:45:27.958Z,58.33
2022-09-28T13:48:17.218Z,59.96
2022-09-28T13:51:13.212Z,59.33
2022-09-28T13:54:09.170Z,58.66
2022-09-28T13:56:49.161Z,58.94
2022-09-28T13:59:24.682Z,59.35
2022-09-28T14:02:06.934Z,59.48
2022-09-28T14:05:00.149Z,58.70
2022-09-28T14:08:10.825Z,58.90
2022-09-28T14:10:51.589Z,59.06
2022-09-28T14:14:00.959Z,57.67
2022-09-28T14:16:32.093Z,58.11
2022-09-28T14:19:08.207Z,57.49
2022-09-28T14:22:07.893Z,57.83
2022-09-28T14:25:03.436Z,58.44
2022-09-28T14:28:25.627Z,58.53
2022-09-28T14:30:59.310Z,58.19
2022-09-28T14:33:31.514Z,58.00
2022-09-28T14:36:04.286Z,57.94
2022-09-28T14:38:54.926Z,58.36
2022-09-28T14:41:33.678Z,58.90
2022-09-28T14:44:09.226Z,59.22
2022-09-28T14:46:44.735Z,59.17
2022-09-28T14:49:51.210Z,59.08
2022-09-28T14:52:39.494Z,59.32
2022-09-28T14:55:18.154Z,58.26
2022-09-28T14:57:54.180Z,58.86
2022-09-28T15:00:25.995Z,57.37
2022-09-28T15:03:00.584Z,57.11
2022-09-28T15:05:33.636Z,57.61
2022-09-28T15:08:03.712Z,57.73
2022-09-28T15:10:36.675Z,57.54
2022-09-28T15:13:18.710Z,57.10
2022-09-28T15:15:51.751Z,57.78
2022-09-28T15:19:06.332Z,58.32
2022-09-28T15:21:39.515Z,58.35
2022-09-28T15:24:30.598Z,58.73
2022-09-28T15:27:00.953Z,59.04
2022-09-28T15:29:31.808Z,59.27
2022-09-28T15:32:00.191Z,59.25
2022-09-28T15:34:48.514Z,59.84
2022-09-28T15:37:19.943Z,59.75
2022-09-28T15:39:48.643Z,59.40
2022-09-28T15:42:19.606Z,59.22
2022-09-28T15:45:24.826Z,59.06
2022-09-28T15:47:58.429Z,59.66
2022-09-28T15:50:29.208Z,59.36
2022-09-28T15:53:01.554Z,60.47
2022-09-28T15:55:34.061Z,60.15
2022-09-28T15:58:19.158Z,59.93
2022-09-28T16:00:48.621Z,60.36
2022-09-28T16:03:24.648Z,60.02
2022-09-28T16:06:06.266Z,59.37
2022-09-28T16:08:41.978Z,59.42
2022-09-28T16:11:18.226Z,59.74
2022-09-28T16:14:04.405Z,59.83
2022-09-28T16:16:41.130Z,60.36
2022-09-28T16:19:24.426Z,60.40
2022-09-28T16:21:55.269Z,61.18
2022-09-28T16:24:28.222Z,60.96
2022-09-28T16:26:59.677Z,61.42
2022-09-28T16:29:39.906Z,61.31
2022-09-28T16:32:37.767Z,60.87
2022-09-28T16:35:23.620Z,61.40
2022-09-28T16:38:00.831Z,60.48
2022-09-28T16:40:29.645Z,61.45
2022-09-28T16:43:03.840Z,60.70
2022-09-28T16:45:35.072Z,60.71
2022-09-28T16:48:04.135Z,61.48
2022-09-28T16:50:32.371Z,61.02
2022-09-28T16:53:31.618Z,61.95
2022-09-28T16:56:00.648Z,61.66
2022-09-28T16:58:28.859Z,62.04
2022-09-28T17:00:58.719Z,62.33
2022-09-28T17:03:27.809Z,61.90
2022-09-28T17:05:57.079Z,61.94
2022-09-28T17:08:26.655Z,62.46
2022-09-28T17:13:46.034Z,62.49
2022-09-28T17:16:17.994Z,62.23
2022-09-28T17:18:46.936Z,62.77
2022-09-28T17:21:18.652Z,63.04
2022-09-28T17:23:48.690Z,62.92
2022-09-28T17:26:21.796Z,64.75
2022-09-28T17:28:49.925Z,64.31
2022-09-28T17:31:19.508Z,63.88
2022-09-28T17:33:47.704Z,63.75
2022-09-28T17:36:19.030Z,63.27
2022-09-28T17:38:49.375Z,63.08
2022-09-28T17:41:21.116Z,63.20
2022-09-28T17:43:49.827Z,63.91
2022-09-28T17:46:28.508Z,63.94
2022-09-28T17:48:59.490Z,63.64
2022-09-28T17:51:30.381Z,63.83
2022-09-28T17:53:58.664Z,63.59
2022-09-28T17:56:31.672Z,63.23
2022-09-28T17:59:03.024Z,64.74
2022-09-28T18:01:35.004Z,64.87
2022-09-28T18:04:04.903Z,64.80
2022-09-28T18:06:33.881Z,64.74
2022-09-28T18:09:02.816Z,64.68
2022-09-28T18:11:31.435Z,65.09
2022-09-28T18:13:59.526Z,64.48
2022-09-28T18:16:29.050Z,64.48
2022-09-28T18:18:59.858Z,65.09
2022-09-28T18:21:28.381Z,64.24
2022-09-28T18:23:56.379Z,64.41
2022-09-28T18:26:24.528Z,64.27
2022-09-28T18:28:55.941Z,64.19
2022-09-28T18:31:24.491Z,64.55
2022-09-28T18:33:57.776Z,64.99
2022-09-28T18:36:30.707Z,65.41
2022-09-28T18:39:01.474Z,65.38
2022-09-28T18:41:29.976Z,65.39
2022-09-28T18:44:00.837Z,64.88
2022-09-28T18:46:30.452Z,65.02
2022-09-28T18:48:58.638Z,65.87
2022-09-28T18:51:26.761Z,64.90
2022-09-28T18:53:56.212Z,64.90
2022-09-28T18:56:24.682Z,64.75
2022-09-28T18:58:52.790Z,65.76
2022-09-28T19:01:30.050Z,66.04
2022-09-28T19:04:01.343Z,65.58
2022-09-28T19:06:29.969Z,64.91
2022-09-28T19:08:59.986Z,65.04
2022-09-28T19:11:29.495Z,65.27
2022-09-28T19:13:58.429Z,64.26
2022-09-28T19:16:29.378Z,64.44
2022-09-28T19:18:58.988Z,64.85
2022-09-28T19:21:27.733Z,65.52
2022-09-28T19:23:56.522Z,65.07
2022-09-28T19:26:27.996Z,65.53
2022-09-28T19:28:58.252Z,66.94
2022-09-28T19:31:27.036Z,66.86
2022-09-28T19:33:55.152Z,66.51
2022-09-28T19:36:28.289Z,66.03
2022-09-28T19:38:58.078Z,66.03
2022-09-28T19:41:51.011Z,65.47
2022-09-28T19:44:25.654Z,65.92
2022-09-28T19:46:55.907Z,65.02
2022-09-28T19:49:26.185Z,65.33
2022-09-28T19:52:12.190Z,66.50
2022-09-28T19:54:43.868Z,65.99
2022-09-28T19:57:15.950Z,64.96
2022-09-28T19:59:45.386Z,65.25
2022-09-28T20:02:14.838Z,65.09
2022-09-28T20:04:42.956Z,64.86
2022-09-28T20:07:10.997Z,65.55
2022-09-28T20:09:39.089Z,65.77
2022-09-28T20:12:07.374Z,66.06
2022-09-28T20:14:39.677Z,65.47
2022-09-28T20:17:08.981Z,65.89
2022-09-28T20:19:37.043Z,66.57
2022-09-28T20:22:05.347Z,66.74
2022-09-28T20:24:33.984Z,66.06
2022-09-28T20:27:02.457Z,67.20
2022-09-28T20:29:33.336Z,66.60
2022-09-28T20:32:04.222Z,66.70
2022-09-28T20:34:33.418Z,66.64
2022-09-28T20:37:01.750Z,66.84
2022-09-28T20:39:30.111Z,67.22
2022-09-28T20:41:58.152Z,66.85
2022-09-28T20:44:26.271Z,66.15
2022-09-28T20:46:54.579Z,66.11
2022-09-28T20:49:24.295Z,66.52
2022-09-28T20:51:52.377Z,66.17
2022-09-28T20:54:22.023Z,66.84
2022-09-28T20:56:50.125Z,66.97
2022-09-28T20:59:18.408Z,67.84
2022-09-28T21:01:46.614Z,68.08
2022-09-28T21:04:14.814Z,67.54
2022-09-28T21:06:44.347Z,67.76
2022-09-28T21:09:13.218Z,67.28
2022-09-28T21:11:41.612Z,67.18
2022-09-28T21:14:10.810Z,67.37
2022-09-28T21:16:39.296Z,67.27
2022-09-28T21:19:07.636Z,67.94
2022-09-28T21:21:35.829Z,67.00
2022-09-28T21:24:05.489Z,67.41
2022-09-28T21:26:34.978Z,67.20
2022-09-28T21:29:05.880Z,67.17
2022-09-28T21:31:40.081Z,66.73
2022-09-28T21:34:08.378Z,67.10
2022-09-28T21:36:36.689Z,67.43
2022-09-28T21:39:10.278Z,67.15
2022-09-28T21:41:38.734Z,67.46
2022-09-28T21:44:08.130Z,67.28
2022-09-28T21:46:36.916Z,67.48
2022-09-28T21:49:07.507Z,67.25
2022-09-28T21:51:37.567Z,67.30
2022-09-28T21:54:08.097Z,67.73
2022-09-28T21:56:36.173Z,67.71
2022-09-28T21:59:04.239Z,67.77
2022-09-28T22:01:32.405Z,67.60
2022-09-28T22:04:00.766Z,66.80
2022-09-28T22:06:29.281Z,67.09
2022-09-28T22:08:58.011Z,66.84
2022-09-28T22:11:29.405Z,67.57
2022-09-28T22:13:59.970Z,67.18
2022-09-28T22:16:31.730Z,67.32
2022-09-28T22:19:00.701Z,67.65
2022-09-28T22:21:31.800Z,66.84
2022-09-28T22:24:01.828Z,67.26
2022-09-28T22:26:33.575Z,67.06
2022-09-28T22:29:05.212Z,67.82
2022-09-28T22:31:36.043Z,67.66
2022-09-28T22:34:05.098Z,66.14
2022-09-28T22:36:33.398Z,66.42
2022-09-28T22:39:04.119Z,65.87
2022-09-28T22:41:59.070Z,66.33
2022-09-28T22:44:27.202Z,65.84
2022-09-28T22:46:55.385Z,66.15
2022-09-28T22:49:23.730Z,66.60
2022-09-28T22:51:52.116Z,66.65
2022-09-28T22:54:21.536Z,66.41
2022-09-28T22:56:49.611Z,66.24
2022-09-28T22:59:19.146Z,66.58
2022-09-28T23:01:47.438Z,66.73
2022-09-28T23:04:15.562Z,66.31
2022-09-28T23:06:43.669Z,66.67
2022-09-28T23:09:11.836Z,66.99
2022-09-28T23:11:39.965Z,67.66
2022-09-28T23:14:11.407Z,67.76
2022-09-28T23:16:41.230Z,67.46
2022-09-28T23:19:09.317Z,67.30
2022-09-28T23:21:38.346Z,66.83
2022-09-28T23:24:06.640Z,66.34
2022-09-28T23:26:36.881Z,67.51
2022-09-28T23:29:05.687Z,66.96
2022-09-28T23:31:34.677Z,67.09
2022-09-28T23:34:06.667Z,66.20
2022-09-28T23:36:35.869Z,67.06
2022-09-28T23:39:04.234Z,66.07
2022-09-28T23:41:32.286Z,66.57
2022-09-28T23:44:00.441Z,66.84
2022-09-28T23:46:28.621Z,66.68
2022-09-28T23:48:56.791Z,66.52
2022-09-28T23:51:26.249Z,66.78
2022-09-28T23:53:54.395Z,67.10
2022-09-28T23:56:22.652Z,67.12
2022-09-28T23:58:50.752Z,67.63
